Home > Products > Valid Products > TAF

000
FTPQ31 PGUM 310522
TAFGUM
TAF
PGUM 310522Z 3106/0112 05012G22KT P6SM VCSH SCT022 SCT050
     FM310800 05011KT P6SM VCSH FEW020 SCT050=



000
FTPQ31 PGUM 310522
TAFGUM
TAF
PGUM 310522Z 3106/0112 05012G22KT P6SM VCSH SCT022 SCT050
     FM310800 05011KT P6SM VCSH FEW020 SCT050=



000
FTPQ31 PGUM 302337
TAFGUM
TAF
PGUM 302337Z 3100/0106 06011G21KT P6SM VCSH FEW020 SCT050
     FM310200 06012G22KT P6SM VCSH SCT022 SCT050
     FM310800 05008KT P6SM VCSH FEW020 SCT050=



000
FTPQ31 PGUM 302337
TAFGUM
TAF
PGUM 302337Z 3100/0106 06011G21KT P6SM VCSH FEW020 SCT050
     FM310200 06012G22KT P6SM VCSH SCT022 SCT050
     FM310800 05008KT P6SM VCSH FEW020 SCT050=



000
FTPQ31 PGUM 301739
TAFGUM
TAF
PGUM 301739Z 3018/3124 06008KT P6SM VCSH FEW020 SCT050
     FM302300 06015G22KT P6SM VCSH SCT022 SCT050
     FM310800 05008KT P6SM VCSH FEW020 SCT050=



000
FTPQ31 PGUM 301739
TAFGUM
TAF
PGUM 301739Z 3018/3124 06008KT P6SM VCSH FEW020 SCT050
     FM302300 06015G22KT P6SM VCSH SCT022 SCT050
     FM310800 05008KT P6SM VCSH FEW020 SCT050=



000
FTPQ31 PGUM 301123
TAFGUM
TAF
PGUM 301123Z 3012/3118 05007KT P6SM VCSH SCT020
     FM302300 06015G22KT P6SM VCSH SCT022 SCT050=



000
FTPQ31 PGUM 301123
TAFGUM
TAF
PGUM 301123Z 3012/3118 05007KT P6SM VCSH SCT020
     FM302300 06015G22KT P6SM VCSH SCT022 SCT050=



000
FTPQ31 PGUM 300520
TAFGUM
TAF
PGUM 300520Z 3006/3112 05013KT P6SM VCSH SCT022 SCT050
     FM300900 05009KT P6SM VCSH SCT020 SCT050=



000
FTPQ31 PGUM 300520
TAFGUM
TAF
PGUM 300520Z 3006/3112 05013KT P6SM VCSH SCT022 SCT050
     FM300900 05009KT P6SM VCSH SCT020 SCT050=



000
FTPQ31 PGUM 300119 RRK
TAFGUM
TAF
PGUM 300119Z 3001/3106 04007KT P6SM SCT020
     FM300200 06013KT P6SM VCSH SCT022 SCT050
     FM300900 06008KT P6SM VCSH SCT020 SCT050=



000
FTPQ31 PGUM 300119 RRK
TAFGUM
TAF
PGUM 300119Z 3001/3106 04007KT P6SM SCT020
     FM300200 06013KT P6SM VCSH SCT022 SCT050
     FM300900 06008KT P6SM VCSH SCT020 SCT050=



000
FTPQ31 PGUM 291741
TAFGUM
TAF
PGUM 291741Z 2918/3024 04007KT P6SM SCT020
     FM300100 06013KT P6SM VCSH SCT022 SCT040=



000
FTPQ31 PGUM 291741
TAFGUM
TAF
PGUM 291741Z 2918/3024 04007KT P6SM SCT020
     FM300100 06013KT P6SM VCSH SCT022 SCT040=



000
FTPQ31 PGUM 291120
TAFGUM
TAF
PGUM 291120Z 2912/3018 04007KT P6SM SCT020
     FM300100 06013KT P6SM VCSH SCT022 SCT040=



000
FTPQ31 PGUM 291120
TAFGUM
TAF
PGUM 291120Z 2912/3018 04007KT P6SM SCT020
     FM300100 06013KT P6SM VCSH SCT022 SCT040=



000
FTPQ31 PGUM 290529
TAFGUM
TAF
PGUM 290529Z 2906/3012 07011KT P6SM VCSH FEW025 SCT050=



000
FTPQ31 PGUM 290529
TAFGUM
TAF
PGUM 290529Z 2906/3012 07011KT P6SM VCSH FEW025 SCT050=



000
FTPQ31 PGUM 282341
TAFGUM
TAF
PGUM 282341Z 2900/3006 09008KT P6SM VCSH FEW020 SCT050 BKN120
     FM290200 07011KT P6SM VCSH FEW025 SCT050=



000
FTPQ31 PGUM 282341
TAFGUM
TAF
PGUM 282341Z 2900/3006 09008KT P6SM VCSH FEW020 SCT050 BKN120
     FM290200 07011KT P6SM VCSH FEW025 SCT050=



000
FTPQ31 PGUM 281747
TAFGUM
TAF
PGUM 281747Z 2818/2924 05007KT P6SM VCSH FEW020 SCT050 BKN120
     FM290200 05011KT P6SM VCSH FEW025 SCT050=



000
FTPQ31 PGUM 281747
TAFGUM
TAF
PGUM 281747Z 2818/2924 05007KT P6SM VCSH FEW020 SCT050 BKN120
     FM290200 05011KT P6SM VCSH FEW025 SCT050=



000
FTPQ31 PGUM 281131
TAFGUM
TAF
PGUM 281131Z 2812/2918 09008KT P6SM VCSH FEW020 SCT050=



000
FTPQ31 PGUM 281131
TAFGUM
TAF
PGUM 281131Z 2812/2918 09008KT P6SM VCSH FEW020 SCT050=



    US Dept of Commerce
    National Oceanic and Atmospheric Administration
    National Weather Service
    1325 East West Highway
    Silver Spring, MD 20910
    Page Author: NWS Internet Services Team
Disclaimer
Information Quality
Credits
Glossary
Privacy Policy
Freedom of Information Act (FOIA)
About Us
Career Opportunities